Time;durP1;ratioP1;P1;durP2;ratioP2;P2;SDS_P1;SDS_P2;PMS_P1;PMS_P2;Temp;Humidity;BMP_temperature;BMP_pressure;BME280_temperature;BME280_humidity;BME280_pressure;Samples;Min_cycle;Max_cycle;Signal;HPM_P1;HPM_P2
2022/02/11 00:02:22;;;;;;;13.73;5.70;;;5.10;91.10;;;;;;6191759;23;20031;-82
2022/02/11 00:07:18;;;;;;;15.90;5.45;;;5.10;91.20;;;;;;6192510;23;20023;-82
2022/02/11 00:09:44;;;;;;;11.82;5.30;;;5.10;91.20;;;;;;6190572;23;20017;-85
2022/02/11 00:12:09;;;;;;;12.40;5.63;;;5.10;91.20;;;;;;6191213;23;20091;-82
2022/02/11 00:14:46;;;;;;;13.20;5.80;;;5.10;91.20;;;;;;6216368;23;20025;-88
2022/02/11 00:17:14;;;;;;;10.82;5.20;;;5.10;91.20;;;;;;6191693;23;20027;-82
2022/02/11 00:19:40;;;;;;;13.23;6.22;;;5.10;91.20;;;;;;6216103;23;20482;-82
2022/02/11 00:22:05;;;;;;;17.98;5.43;;;5.10;91.20;;;;;;6216873;23;20013;-83
2022/02/11 00:24:31;;;;;;;15.60;5.78;;;5.10;91.30;;;;;;6216848;23;20024;-82
2022/02/11 00:32:35;;;;;;;10.95;4.32;;;5.10;91.30;;;;;;6191474;23;20406;-83
2022/02/11 00:35:12;;;;;;;16.17;5.03;;;5.10;91.20;;;;;;6170507;23;20024;-82
2022/02/11 00:37:40;;;;;;;14.80;5.90;;;5.10;91.20;;;;;;6216506;23;20019;-87
2022/02/11 01:04:04;;;;;;;15.43;3.75;;;5.20;91.10;;;;;;6190361;23;20017;-83
2022/02/11 01:06:30;;;;;;;9.00;3.55;;;5.20;91.10;;;;;;6215871;23;20025;-82
2022/02/11 01:08:56;;;;;;;12.50;3.90;;;5.20;91.10;;;;;;6215495;23;20339;-82
2022/02/11 01:11:31;;;;;;;13.23;4.13;;;5.20;91.10;;;;;;6164711;23;20013;-82
2022/02/11 01:13:57;;;;;;;11.73;4.13;;;5.20;91.10;;;;;;6190325;23;20032;-83
2022/02/11 01:16:32;;;;;;;11.65;4.13;;;5.20;91.10;;;;;;6216088;23;20016;-82
2022/02/11 01:19:28;;;;;;;13.30;3.65;;;5.30;91.10;;;;;;6190210;23;20024;-82
2022/02/11 01:21:56;;;;;;;16.30;4.47;;;5.20;91.10;;;;;;6189787;23;20459;-81
2022/02/11 01:30:02;;;;;;;13.95;4.07;;;5.20;91.10;;;;;;6121730;23;20024;-81
2022/02/11 01:37:33;;;;;;;17.75;4.25;;;5.10;91.10;;;;;;6190540;23;20031;-82
2022/02/11 01:50:48;;;;;;;15.50;3.22;;;5.10;91.20;;;;;;6190323;23;20031;-81
2022/02/11 02:12:07;;;;;;;14.48;4.53;;;5.10;92.10;;;;;;6190823;23;20095;-82
2022/02/11 02:15:48;;;;;;;16.38;4.97;;;5.10;92.30;;;;;;6190897;23;20032;-83
2022/02/11 02:25:17;;;;;;;13.93;4.18;;;5.00;92.70;;;;;;6215069;23;20115;-83
2022/02/11 02:36:20;;;;;;;17.88;4.00;;;5.00;93.10;;;;;;6168454;23;20056;-82
2022/02/11 02:57:50;;;;;;;9.57;2.70;;;5.10;93.80;;;;;;6190444;23;20028;-82
2022/02/11 03:49:29;;;;;;;14.75;3.55;;;5.40;94.70;;;;;;6191680;23;20351;-83
2022/02/11 04:59:58;;;;;;;13.15;3.47;;;5.50;94.20;;;;;;6191978;23;20020;-83
2022/02/11 05:02:26;;;;;;;16.05;3.47;;;5.50;94.20;;;;;;6166150;23;20020;-81
2022/02/11 05:04:56;;;;;;;14.80;3.85;;;5.50;94.20;;;;;;6216431;23;20016;-81
2022/02/11 05:07:21;;;;;;;17.35;3.30;;;5.50;94.10;;;;;;6190284;23;20020;-82
2022/02/11 05:09:47;;;;;;;14.82;2.65;;;5.50;94.10;;;;;;6191501;23;20047;-82
2022/02/11 05:12:13;;;;;;;13.30;2.75;;;5.50;94.00;;;;;;6190602;23;20027;-82
2022/02/11 05:14:38;;;;;;;19.27;3.72;;;5.40;94.30;;;;;;6190630;23;20075;-82
2022/02/11 05:17:04;;;;;;;22.90;3.53;;;5.40;93.90;;;;;;6166915;23;20021;-82
2022/02/11 05:19:30;;;;;;;18.67;4.05;;;5.40;93.90;;;;;;6189973;23;20030;-82
2022/02/11 05:21:55;;;;;;;24.42;4.80;;;5.40;93.90;;;;;;6216297;23;20017;-81
2022/02/11 05:24:21;;;;;;;17.70;4.65;;;5.30;93.80;;;;;;6215919;23;20024;-84
2022/02/11 05:26:47;;;;;;;16.15;3.67;;;5.40;93.90;;;;;;6216046;23;20017;-82
2022/02/11 05:29:12;;;;;;;16.17;4.03;;;5.30;94.20;;;;;;6191426;23;20020;-82
2022/02/11 05:31:38;;;;;;;25.30;4.57;;;5.30;93.90;;;;;;6165833;23;20063;-82
2022/02/11 05:34:04;;;;;;;13.73;3.35;;;5.30;93.90;;;;;;6191079;23;20436;-82
2022/02/11 05:36:30;;;;;;;19.30;4.10;;;5.40;93.90;;;;;;6215510;23;20063;-82
2022/02/11 05:38:55;;;;;;;19.63;4.72;;;5.30;93.90;;;;;;6190530;23;20042;-82
2022/02/11 05:41:21;;;;;;;17.92;3.92;;;5.30;93.80;;;;;;6191019;23;20031;-85
2022/02/11 05:43:47;;;;;;;17.42;4.28;;;5.30;93.80;;;;;;6167796;23;20021;-81
2022/02/11 05:46:13;;;;;;;18.50;4.20;;;5.30;94.10;;;;;;6194686;23;20027;-81
2022/02/11 05:48:39;;;;;;;18.40;3.88;;;5.30;93.80;;;;;;6193320;23;20346;-80
2022/02/11 05:51:06;;;;;;;18.75;4.30;;;5.30;93.70;;;;;;6192252;23;20344;-82
2022/02/11 05:53:32;;;;;;;16.58;3.38;;;5.30;93.70;;;;;;6165640;23;20068;-81
2022/02/11 05:55:58;;;;;;;20.70;4.18;;;5.30;93.70;;;;;;6217183;23;20021;-82
2022/02/11 05:58:24;;;;;;;22.92;4.00;;;5.30;93.60;;;;;;6217600;23;20024;-85
2022/02/11 06:00:49;;;;;;;15.20;3.47;;;5.30;93.60;;;;;;6167334;23;20478;-82
2022/02/11 06:03:15;;;;;;;22.55;3.65;;;5.30;93.60;;;;;;6219630;23;20052;-82
2022/02/11 06:05:41;;;;;;;16.55;3.38;;;5.30;93.60;;;;;;6216708;23;20024;-82
2022/02/11 06:08:06;;;;;;;17.67;3.20;;;5.30;93.60;;;;;;6216928;23;20024;-82
2022/02/11 06:10:32;;;;;;;21.38;4.07;;;5.30;93.60;;;;;;6164327;23;20028;-81
2022/02/11 06:13:02;;;;;;;17.70;3.60;;;5.30;93.60;;;;;;6189291;23;20044;-81
2022/02/11 06:15:27;;;;;;;12.48;2.63;;;5.30;93.60;;;;;;6188585;23;20028;-85
2022/02/11 06:17:53;;;;;;;16.85;3.58;;;5.20;93.60;;;;;;6187559;23;20028;-82
2022/02/11 06:20:27;;;;;;;14.15;3.17;;;5.20;93.60;;;;;;6213993;23;20055;-82
2022/02/11 06:22:52;;;;;;;16.15;2.85;;;5.20;93.50;;;;;;6164411;23;20020;-81
2022/02/11 06:25:18;;;;;;;21.50;3.80;;;5.20;93.50;;;;;;6214814;23;20017;-82
2022/02/11 06:27:44;;;;;;;13.35;2.85;;;5.20;93.50;;;;;;6189479;23;20012;-81
2022/02/11 06:30:10;;;;;;;13.18;3.05;;;5.20;93.50;;;;;;6214834;23;20020;-82
2022/02/11 06:32:36;;;;;;;19.50;3.22;;;5.20;93.40;;;;;;6164956;23;20051;-79
2022/02/11 06:35:02;;;;;;;17.38;3.65;;;5.20;93.40;;;;;;6192549;23;20024;-86
2022/02/11 06:37:28;;;;;;;14.00;2.88;;;5.20;93.40;;;;;;6192160;23;20343;-83
2022/02/11 06:39:53;;;;;;;15.38;3.40;;;5.20;93.30;;;;;;6194095;23;20456;-82
2022/02/11 06:42:19;;;;;;;22.08;3.90;;;5.10;93.30;;;;;;6216257;23;20023;-81
2022/02/11 06:44:45;;;;;;;16.92;3.40;;;5.10;93.30;;;;;;6169048;23;20108;-82
2022/02/11 06:47:11;;;;;;;16.88;3.50;;;5.20;93.30;;;;;;6190258;23;20020;-80
2022/02/11 06:49:37;;;;;;;16.00;3.75;;;5.10;93.30;;;;;;6162723;23;20479;-80
2022/02/11 06:52:03;;;;;;;16.35;3.58;;;5.10;93.30;;;;;;6206299;23;20017;-79
2022/02/11 06:54:28;;;;;;;15.00;3.63;;;5.10;93.20;;;;;;6162711;23;20013;-80
2022/02/11 06:56:54;;;;;;;24.15;5.82;;;5.00;93.10;;;;;;6160126;23;20024;-80
2022/02/11 06:59:20;;;;;;;11.88;4.20;;;5.10;93.10;;;;;;6187692;23;20021;-78
2022/02/11 07:01:45;;;;;;;18.17;3.58;;;5.10;93.10;;;;;;6211089;23;20016;-77
2022/02/11 07:04:11;;;;;;;21.33;6.25;;;5.00;93.10;;;;;;6187806;23;20022;-77
2022/02/11 07:06:37;;;;;;;16.65;3.47;;;5.00;93.10;;;;;;6160685;23;20435;-83
2022/02/11 07:09:03;;;;;;;26.13;3.83;;;5.10;93.10;;;;;;6184843;23;20336;-86
2022/02/11 07:11:28;;;;;;;20.40;3.63;;;5.00;93.00;;;;;;6186868;23;20100;-79
2022/02/11 07:13:54;;;;;;;16.58;3.72;;;5.00;93.00;;;;;;6161960;23;20085;-78
2022/02/11 07:16:20;;;;;;;19.25;3.72;;;5.10;93.00;;;;;;6214975;23;20024;-87
2022/02/11 07:18:45;;;;;;;19.35;4.18;;;5.00;93.00;;;;;;6184887;23;20016;-83
2022/02/11 07:21:11;;;;;;;18.65;3.95;;;5.10;92.90;;;;;;6212181;23;20024;-76
2022/02/11 07:23:37;;;;;;;20.90;4.05;;;5.10;92.90;;;;;;6162619;23;20056;-83
2022/02/11 07:26:03;;;;;;;22.08;4.57;;;5.10;92.90;;;;;;6212275;23;20019;-76
2022/02/11 07:28:28;;;;;;;16.10;4.10;;;5.10;93.20;;;;;;6214228;23;20439;-76
2022/02/11 07:30:54;;;;;;;16.15;4.43;;;5.20;92.90;;;;;;6187172;23;20020;-76
2022/02/11 07:33:20;;;;;;;19.55;4.57;;;5.10;92.90;;;;;;6213467;23;20093;-76
2022/02/11 07:35:45;;;;;;;21.67;5.03;;;5.20;93.00;;;;;;6212489;23;20013;-82
2022/02/11 07:38:11;;;;;;;17.45;4.22;;;5.20;92.90;;;;;;6138708;23;20028;-78
2022/02/11 07:40:39;;;;;;;15.32;3.25;;;5.20;92.90;;;;;;6163113;23;20024;-77
2022/02/11 07:43:08;;;;;;;19.92;3.92;;;5.20;92.80;;;;;;6188567;23;20020;-77
2022/02/11 07:45:36;;;;;;;18.58;4.32;;;5.30;92.90;;;;;;6188644;23;20021;-77
2022/02/11 07:48:03;;;;;;;23.88;3.90;;;5.20;92.90;;;;;;6212342;23;20021;-77
2022/02/11 07:50:29;;;;;;;28.67;6.38;;;5.20;93.00;;;;;;6188892;23;20028;-79
2022/02/11 07:52:56;;;;;;;24.90;5.20;;;5.20;93.00;;;;;;6187583;23;20013;-79
2022/02/11 07:55:22;;;;;;;22.20;4.35;;;5.20;93.10;;;;;;6188382;23;20092;-78
2022/02/11 07:57:47;;;;;;;16.27;3.92;;;5.20;93.20;;;;;;6187710;23;20474;-77
2022/02/11 08:00:14;;;;;;;19.70;3.92;;;5.10;93.20;;;;;;6187881;23;20092;-77
2022/02/11 08:02:43;;;;;;;20.15;4.13;;;5.20;93.30;;;;;;6188493;23;20082;-78
2022/02/11 08:05:09;;;;;;;18.15;3.80;;;5.20;93.30;;;;;;6187768;23;20027;-75
2022/02/11 08:07:34;;;;;;;25.48;5.07;;;5.20;93.40;;;;;;6213947;23;20083;-77
2022/02/11 08:10:00;;;;;;;20.10;4.07;;;5.20;93.40;;;;;;6186737;23;20024;-77
2022/02/11 08:12:26;;;;;;;12.90;3.10;;;5.20;93.30;;;;;;6162847;23;20546;-77
2022/02/11 08:14:52;;;;;;;16.95;3.20;;;5.20;93.30;;;;;;6162979;23;20423;-76
2022/02/11 08:17:19;;;;;;;13.75;2.97;;;5.20;93.20;;;;;;6162925;23;20016;-78
2022/02/11 08:19:45;;;;;;;17.17;3.53;;;5.20;93.20;;;;;;6187781;23;20016;-80
2022/02/11 08:22:11;;;;;;;15.90;3.63;;;5.20;93.20;;;;;;6214885;23;20469;-77
2022/02/11 08:24:39;;;;;;;15.77;3.10;;;5.20;93.20;;;;;;6216655;23;20013;-76
2022/02/11 08:27:05;;;;;;;16.63;3.05;;;5.20;93.10;;;;;;6214514;23;20021;-77
2022/02/11 08:29:31;;;;;;;12.55;2.60;;;5.20;93.00;;;;;;6189595;23;20082;-76
2022/02/11 08:31:57;;;;;;;13.23;2.97;;;5.20;93.00;;;;;;6214616;23;20024;-76
2022/02/11 08:34:23;;;;;;;17.27;2.65;;;5.30;93.00;;;;;;6164976;23;20020;-77
2022/02/11 08:36:49;;;;;;;16.80;3.20;;;5.20;93.00;;;;;;6189579;23;20390;-78
2022/02/11 08:39:18;;;;;;;13.35;3.13;;;5.20;93.00;;;;;;6189698;23;20082;-76
2022/02/11 08:41:43;;;;;;;14.90;3.28;;;5.20;93.00;;;;;;6139988;23;20361;-78
2022/02/11 08:44:09;;;;;;;14.65;3.28;;;5.20;93.00;;;;;;6213899;23;20032;-77
2022/02/11 08:46:34;;;;;;;14.88;3.97;;;5.20;93.00;;;;;;6190046;23;20016;-77
2022/02/11 08:49:00;;;;;;;21.02;3.65;;;5.20;92.90;;;;;;6163968;23;20025;-78
2022/02/11 08:51:27;;;;;;;18.02;4.35;;;5.20;92.90;;;;;;6164480;23;20023;-77
2022/02/11 08:53:53;;;;;;;15.23;3.75;;;5.30;92.90;;;;;;6189309;23;20020;-77
2022/02/11 08:56:18;;;;;;;15.90;4.45;;;5.40;92.90;;;;;;6189678;23;20096;-76
2022/02/11 08:58:44;;;;;;;22.25;3.97;;;5.40;92.80;;;;;;6189382;23;20048;-77
2022/02/11 09:01:10;;;;;;;13.68;2.97;;;5.50;92.70;;;;;;6189175;23;20052;-76
2022/02/11 09:03:36;;;;;;;15.88;3.95;;;5.50;92.50;;;;;;6189591;23;20028;-76
2022/02/11 09:06:04;;;;;;;17.42;4.47;;;5.60;92.50;;;;;;6214087;23;20021;-77
2022/02/11 09:08:33;;;;;;;17.23;3.33;;;5.60;92.40;;;;;;6214627;23;20065;-77
2022/02/11 09:11:02;;;;;;;19.10;3.72;;;5.70;92.30;;;;;;6188930;23;20020;-77
2022/02/11 09:13:27;;;;;;;16.08;4.10;;;5.80;92.30;;;;;;6188970;23;20126;-77
2022/02/11 09:15:54;;;;;;;13.55;3.17;;;5.80;92.20;;;;;;6189355;23;20020;-80
2022/02/11 09:18:20;;;;;;;14.50;3.40;;;5.90;92.20;;;;;;6214518;23;20052;-77
2022/02/11 09:20:46;;;;;;;17.17;3.80;;;6.00;92.10;;;;;;6189525;23;20032;-76
2022/02/11 09:23:11;;;;;;;21.98;3.67;;;6.00;92.10;;;;;;6214140;23;20024;-76
2022/02/11 09:25:37;;;;;;;22.73;4.85;;;6.00;92.10;;;;;;6189190;23;20340;-77
2022/02/11 09:28:03;;;;;;;20.13;3.80;;;6.00;92.10;;;;;;6188486;23;20415;-76
2022/02/11 09:30:28;;;;;;;23.05;3.95;;;6.10;92.10;;;;;;6189121;23;20012;-76
2022/02/11 09:32:56;;;;;;;22.48;4.93;;;6.20;92.20;;;;;;6188768;23;20020;-76
2022/02/11 09:35:22;;;;;;;18.98;4.30;;;6.20;92.20;;;;;;6214326;23;20082;-76
2022/02/11 09:37:48;;;;;;;19.80;4.72;;;6.20;92.30;;;;;;6164425;23;20021;-77
2022/02/11 09:40:16;;;;;;;31.67;6.10;;;6.20;92.30;;;;;;6188751;23;20335;-77
2022/02/11 09:42:41;;;;;;;23.20;5.32;;;6.30;92.30;;;;;;6189439;23;20020;-78
2022/02/11 09:45:08;;;;;;;30.58;6.45;;;6.30;92.20;;;;;;6188347;23;20024;-77
2022/02/11 09:47:34;;;;;;;27.52;5.85;;;6.40;92.20;;;;;;6164117;23;20013;-76
2022/02/11 09:50:00;;;;;;;23.00;6.20;;;6.50;92.10;;;;;;6213195;23;20459;-77
2022/02/11 09:52:27;;;;;;;25.35;5.60;;;6.60;92.10;;;;;;6164398;23;20062;-76
2022/02/11 09:55:31;;;;;;;27.40;5.53;;;6.50;91.90;;;;;;6215597;23;20020;-76
2022/02/11 09:57:42;;;;;;;22.98;5.97;;;6.50;91.90;;;;;;6167901;23;20123;-77
2022/02/11 10:00:10;;;;;;;24.63;5.70;;;6.50;91.80;;;;;;6163555;23;20058;-77
2022/02/11 10:02:47;;;;;;;26.17;4.72;;;6.50;91.80;;;;;;6189021;23;20079;-77
2022/02/11 10:05:22;;;;;;;16.95;4.43;;;6.50;91.70;;;;;;6213571;23;20451;-77
2022/02/11 10:07:48;;;;;;;16.50;5.10;;;6.50;91.70;;;;;;6188762;23;20013;-79
2022/02/11 10:10:17;;;;;;;24.00;4.40;;;6.50;91.70;;;;;;6213372;23;20079;-78
2022/02/11 10:12:42;;;;;;;22.25;4.40;;;6.60;91.70;;;;;;6213540;23;20021;-77
2022/02/11 10:15:20;;;;;;;19.67;4.53;;;6.80;91.70;;;;;;6188493;23;20016;-77
2022/02/11 10:17:46;;;;;;;19.75;4.10;;;6.90;91.60;;;;;;6213420;23;20443;-76
2022/02/11 10:20:11;;;;;;;18.67;4.07;;;7.00;91.50;;;;;;6188516;23;20079;-77
2022/02/11 10:22:37;;;;;;;18.67;4.45;;;7.20;91.30;;;;;;6188715;23;20462;-77
2022/02/11 10:25:03;;;;;;;20.55;4.97;;;7.30;91.10;;;;;;6188488;23;20017;-76
2022/02/11 10:27:30;;;;;;;19.42;4.85;;;7.40;90.90;;;;;;6213436;23;20059;-77
2022/02/11 10:29:58;;;;;;;20.77;3.38;;;7.40;90.60;;;;;;6188299;23;20104;-77
2022/02/11 10:32:43;;;;;;;17.48;4.10;;;7.30;90.50;;;;;;6213202;23;20088;-76
2022/02/11 10:35:13;;;;;;;15.55;3.65;;;7.30;90.30;;;;;;6213306;23;20017;-77
2022/02/11 10:38:06;;;;;;;16.83;3.83;;;7.30;90.50;;;;;;6188424;23;20387;-78
2022/02/11 10:40:34;;;;;;;14.52;3.65;;;7.30;90.10;;;;;;6161333;23;20016;-77
2022/02/11 10:42:59;;;;;;;17.65;3.45;;;7.30;90.40;;;;;;6213636;23;20035;-76
2022/02/11 10:45:37;;;;;;;20.02;5.15;;;7.40;90.40;;;;;;6212987;23;20021;-77
2022/02/11 10:48:23;;;;;;;13.20;3.17;;;7.30;90.10;;;;;;6213507;23;20016;-77
2022/02/11 10:50:53;;;;;;;17.05;4.05;;;7.50;90.00;;;;;;6213636;23;20027;-77
2022/02/11 10:53:23;;;;;;;17.30;3.40;;;7.60;90.10;;;;;;6187655;23;20088;-77
2022/02/11 10:55:50;;;;;;;19.15;3.72;;;7.80;89.90;;;;;;6213302;23;20013;-77
2022/02/11 10:58:19;;;;;;;19.40;4.10;;;7.90;89.70;;;;;;6162998;23;20052;-77
2022/02/11 11:00:45;;;;;;;18.25;3.70;;;8.00;89.00;;;;;;6188255;23;20060;-77
2022/02/11 11:03:11;;;;;;;19.70;4.07;;;8.10;88.40;;;;;;6187864;23;20036;-78
2022/02/11 11:05:40;;;;;;;12.43;3.28;;;8.20;87.90;;;;;;6188396;23;20020;-77
2022/02/11 11:08:08;;;;;;;20.88;3.80;;;8.20;87.00;;;;;;6187727;23;20013;-77
2022/02/11 11:10:34;;;;;;;21.80;4.00;;;8.30;86.60;;;;;;6187578;23;20099;-76
2022/02/11 11:13:00;;;;;;;15.43;3.20;;;8.40;85.90;;;;;;6213092;23;20050;-76
2022/02/11 11:15:28;;;;;;;17.85;3.15;;;8.40;85.50;;;;;;6187956;23;20391;-77
2022/02/11 11:17:54;;;;;;;15.45;3.17;;;8.60;85.00;;;;;;6213177;23;20013;-76
2022/02/11 11:20:20;;;;;;;13.00;2.83;;;8.70;84.60;;;;;;6187990;23;20103;-76
2022/02/11 11:22:48;;;;;;;12.93;3.08;;;8.90;83.70;;;;;;6214688;23;20016;-76
2022/02/11 11:25:14;;;;;;;15.43;3.53;;;9.10;82.70;;;;;;6212715;23;20023;-77
2022/02/11 11:27:53;;;;;;;16.00;3.55;;;9.40;82.20;;;;;;6214430;23;20016;-77
2022/02/11 11:30:30;;;;;;;17.95;3.55;;;9.70;81.90;;;;;;6162937;23;20115;-77
2022/02/11 11:33:07;;;;;;;21.95;4.25;;;10.00;81.50;;;;;;6188043;23;20067;-77
2022/02/11 11:35:42;;;;;;;15.45;3.90;;;10.30;80.30;;;;;;6187609;23;20025;-76
2022/02/11 11:38:19;;;;;;;18.42;4.20;;;10.30;79.00;;;;;;6188186;23;20016;-76
2022/02/11 11:41:18;;;;;;;15.00;3.63;;;11.10;77.30;;;;;;6163412;23;20035;-76
2022/02/11 11:43:45;;;;;;;16.48;3.58;;;12.50;76.40;;;;;;6202384;23;20120;-76
2022/02/11 11:46:17;;;;;;;13.68;3.88;;;13.70;71.50;;;;;;6213094;23;20064;-76
2022/02/11 11:49:03;;;;;;;18.08;3.50;;;14.80;68.10;;;;;;6214480;23;20022;-76
2022/02/11 11:51:35;;;;;;;13.25;2.72;;;15.70;66.00;;;;;;6187590;23;20040;-77
2022/02/11 11:54:16;;;;;;;15.50;3.20;;;16.10;63.10;;;;;;6188014;23;20021;-76
2022/02/11 11:56:54;;;;;;;14.13;2.45;;;16.40;62.10;;;;;;6215739;23;20120;-77
2022/02/11 11:59:21;;;;;;;11.60;2.78;;;16.10;61.80;;;;;;6189688;23;20016;-78
2022/02/11 12:01:55;;;;;;;13.48;2.95;;;15.70;62.30;;;;;;6189541;23;20458;-77
2022/02/11 12:04:23;;;;;;;10.63;3.05;;;15.70;62.30;;;;;;6189160;23;20118;-75
2022/02/11 12:07:02;;;;;;;9.27;2.20;;;15.80;62.20;;;;;;6189900;23;20044;-75
2022/02/11 12:09:28;;;;;;;13.85;2.33;;;15.70;59.30;;;;;;6214567;23;20023;-75
2022/02/11 12:11:55;;;;;;;13.80;2.80;;;15.90;60.90;;;;;;6214916;23;20017;-75
2022/02/11 12:14:21;;;;;;;12.75;2.60;;;15.80;60.70;;;;;;6189510;23;20040;-76
2022/02/11 12:16:47;;;;;;;13.00;2.88;;;15.70;61.00;;;;;;6165073;23;20012;-75
2022/02/11 12:19:13;;;;;;;13.15;2.70;;;15.50;61.20;;;;;;6190069;23;20020;-75
2022/02/11 12:21:39;;;;;;;10.48;2.78;;;15.40;61.20;;;;;;6189088;23;20023;-75
2022/02/11 12:29:33;;;;;;;10.38;2.53;;;15.50;60.90;;;;;;6193900;23;20102;-75
2022/02/11 12:32:01;;;;;;;11.02;2.50;;;15.30;60.60;;;;;;6190238;23;20048;-75
2022/02/11 12:34:26;;;;;;;11.38;3.35;;;14.90;60.20;;;;;;6164057;23;20052;-75
2022/02/11 12:36:52;;;;;;;11.30;2.65;;;14.40;60.70;;;;;;6210140;23;20016;-74
2022/02/11 12:39:22;;;;;;;7.05;2.03;;;13.90;61.30;;;;;;6187661;23;20024;-79
2022/02/11 12:41:50;;;;;;;8.82;2.45;;;13.60;63.30;;;;;;6188597;23;20379;-81
2022/02/11 12:44:26;;;;;;;15.98;2.78;;;13.60;65.30;;;;;;6168224;23;20056;-87
2022/02/11 12:46:52;;;;;;;14.27;3.15;;;13.60;65.20;;;;;;6164384;23;20091;-77
2022/02/11 12:49:18;;;;;;;10.35;3.85;;;13.50;65.10;;;;;;6161234;23;20024;-77
2022/02/11 12:52:02;;;;;;;14.10;4.30;;;13.40;64.00;;;;;;6212419;23;20021;-77
2022/02/11 12:54:28;;;;;;;10.63;2.92;;;13.30;62.40;;;;;;6211270;23;20020;-80
2022/02/11 12:57:04;;;;;;;14.02;2.97;;;13.10;63.50;;;;;;6186310;23;20052;-77
2022/02/11 12:59:30;;;;;;;10.55;2.63;;;12.80;61.90;;;;;;6210748;23;20091;-79
2022/02/11 13:01:56;;;;;;;9.30;2.20;;;12.60;62.70;;;;;;6212347;23;20021;-75
2022/02/11 13:04:21;;;;;;;13.05;3.05;;;12.40;63.10;;;;;;6138377;23;20078;-77
2022/02/11 13:06:47;;;;;;;13.80;2.72;;;12.20;63.00;;;;;;6187130;23;20399;-80
2022/02/11 13:09:18;;;;;;;13.00;2.78;;;12.10;63.20;;;;;;6164074;23;20025;-87
2022/02/11 13:11:45;;;;;;;8.23;2.20;;;12.10;64.50;;;;;;6188666;23;20016;-77
2022/02/11 13:14:11;;;;;;;8.73;2.53;;;12.20;64.20;;;;;;6215033;23;20886;-81
2022/02/11 13:16:38;;;;;;;12.73;2.60;;;12.10;63.50;;;;;;6207261;23;20079;-76
2022/02/11 13:19:17;;;;;;;10.32;4.43;;;12.10;63.00;;;;;;6188922;23;20048;-75
2022/02/11 13:21:43;;;;;;;13.43;2.58;;;12.10;61.60;;;;;;6214428;23;20023;-76
2022/02/11 13:24:09;;;;;;;9.25;2.05;;;12.00;62.50;;;;;;6187043;23;20109;-76
2022/02/11 13:26:34;;;;;;;8.05;2.20;;;11.90;62.30;;;;;;6186561;23;20385;-77
2022/02/11 13:29:00;;;;;;;8.30;2.13;;;11.70;62.00;;;;;;6213196;23;20082;-78
2022/02/11 13:31:26;;;;;;;9.60;2.10;;;11.60;62.20;;;;;;6185621;23;20020;-81
2022/02/11 13:34:10;;;;;;;8.40;2.10;;;11.40;62.10;;;;;;6187360;23;20024;-77
2022/02/11 13:36:36;;;;;;;8.68;2.38;;;11.30;60.90;;;;;;6187408;23;20059;-77
2022/02/11 13:39:02;;;;;;;6.57;1.60;;;11.70;61.60;;;;;;6211602;23;20028;-77
2022/02/11 13:41:35;;;;;;;9.15;2.00;;;11.70;61.40;;;;;;6212501;23;20452;-77
2022/02/11 13:44:03;;;;;;;9.23;2.15;;;12.30;60.80;;;;;;6138498;23;20095;-76
2022/02/11 13:46:33;;;;;;;11.70;2.60;;;12.90;60.50;;;;;;6187063;23;20020;-76
2022/02/11 13:49:03;;;;;;;13.30;2.72;;;13.40;59.40;;;;;;6161587;23;20017;-77
2022/02/11 13:51:28;;;;;;;10.63;2.05;;;13.60;58.70;;;;;;6186275;23;20012;-77
2022/02/11 13:53:54;;;;;;;9.00;2.53;;;13.90;58.10;;;;;;6185965;23;20427;-79
2022/02/11 13:56:25;;;;;;;10.45;2.10;;;13.90;57.40;;;;;;6188415;23;20020;-75
2022/02/11 13:59:26;;;;;;;11.70;2.08;;;13.80;57.40;;;;;;6211106;23;20074;-75
2022/02/11 14:02:01;;;;;;;11.57;2.10;;;13.60;55.70;;;;;;6150942;23;20012;-77
2022/02/11 14:04:32;;;;;;;6.45;2.00;;;13.60;57.30;;;;;;6138135;23;20021;-77
2022/02/11 14:06:58;;;;;;;9.95;2.83;;;14.20;56.20;;;;;;6164489;23;20705;-78
2022/02/11 14:09:39;;;;;;;7.63;1.83;;;15.20;54.10;;;;;;6162232;23;20017;-78
2022/02/11 14:12:06;;;;;;;8.07;1.73;;;16.10;51.90;;;;;;6210835;23;20012;-78
2022/02/11 14:14:32;;;;;;;9.45;2.08;;;17.00;50.00;;;;;;6185328;23;20029;-77
2022/02/11 14:16:58;;;;;;;7.85;2.35;;;17.70;48.00;;;;;;6211255;23;20019;-75
2022/02/11 14:19:25;;;;;;;11.98;1.65;;;18.20;46.50;;;;;;6211817;23;20024;-75
2022/02/11 14:21:55;;;;;;;6.30;2.10;;;18.80;45.40;;;;;;6161842;23;20020;-75
2022/02/11 14:24:21;;;;;;;7.78;1.88;;;19.30;44.60;;;;;;6212037;23;20101;-75
2022/02/11 14:26:47;;;;;;;9.40;2.30;;;19.60;44.10;;;;;;6211968;23;20064;-75
2022/02/11 14:29:14;;;;;;;11.25;2.75;;;19.80;43.70;;;;;;6186826;23;20109;-75
2022/02/11 14:31:40;;;;;;;9.13;2.88;;;19.60;44.00;;;;;;6186911;23;20275;-76
2022/02/11 14:34:12;;;;;;;9.30;3.00;;;19.20;44.40;;;;;;6211744;23;20096;-76
2022/02/11 14:36:39;;;;;;;8.70;2.70;;;19.30;44.00;;;;;;6162809;23;20462;-76
2022/02/11 14:39:08;;;;;;;10.27;2.80;;;19.40;44.50;;;;;;6161588;23;20398;-76
2022/02/11 14:41:46;;;;;;;6.82;1.98;;;19.40;44.00;;;;;;6186346;23;20016;-77
2022/02/11 14:44:19;;;;;;;8.65;1.95;;;19.10;44.60;;;;;;6164428;23;20013;-77
2022/02/11 14:46:46;;;;;;;11.23;1.85;;;19.20;43.60;;;;;;6184840;23;20024;-78
2022/02/11 14:49:12;;;;;;;8.70;1.77;;;18.70;44.70;;;;;;6162233;23;20024;-76
2022/02/11 14:51:38;;;;;;;8.63;2.20;;;18.20;45.30;;;;;;6186713;23;20028;-76
2022/02/11 14:54:08;;;;;;;9.55;2.08;;;17.70;45.70;;;;;;6186603;23;20424;-77
2022/02/11 14:56:35;;;;;;;9.45;2.65;;;17.20;46.20;;;;;;6163282;23;20023;-77
2022/02/11 14:59:01;;;;;;;7.43;1.98;;;16.70;47.20;;;;;;6186271;23;20027;-78
2022/02/11 15:01:26;;;;;;;11.88;2.30;;;16.10;47.90;;;;;;6207788;23;20763;-77
2022/02/11 15:03:52;;;;;;;11.70;2.25;;;15.60;48.50;;;;;;6160442;23;20552;-76
2022/02/11 15:06:18;;;;;;;7.22;1.75;;;15.10;49.10;;;;;;6212735;23;20017;-76
2022/02/11 15:08:45;;;;;;;8.18;1.67;;;14.70;49.80;;;;;;6211599;23;20013;-76
2022/02/11 15:11:12;;;;;;;7.10;1.95;;;14.30;50.60;;;;;;6186227;23;20100;-77
2022/02/11 15:13:38;;;;;;;9.63;2.15;;;13.90;51.30;;;;;;6161466;23;20313;-76
2022/02/11 15:16:04;;;;;;;9.40;1.95;;;13.60;52.10;;;;;;6161046;23;20024;-77
2022/02/11 15:18:30;;;;;;;13.38;2.58;;;13.30;52.50;;;;;;6211344;23;20067;-77
2022/02/11 15:20:58;;;;;;;8.93;2.40;;;13.00;53.00;;;;;;6186643;23;20020;-76
2022/02/11 15:23:26;;;;;;;13.52;2.25;;;12.80;54.30;;;;;;6161514;23;20021;-77
2022/02/11 15:25:52;;;;;;;8.63;2.40;;;12.70;53.70;;;;;;6211500;23;20023;-78
2022/02/11 15:28:18;;;;;;;8.95;2.30;;;12.50;54.00;;;;;;6162057;23;20013;-77
2022/02/11 15:30:43;;;;;;;13.70;2.53;;;12.30;54.40;;;;;;6185951;23;20020;-78
2022/02/11 15:33:09;;;;;;;10.93;2.47;;;12.20;54.50;;;;;;6210532;23;20016;-77
2022/02/11 15:35:35;;;;;;;13.32;3.40;;;12.00;54.90;;;;;;6186308;23;20021;-78
2022/02/11 15:38:01;;;;;;;12.38;3.70;;;11.80;55.40;;;;;;6211452;23;20027;-77
2022/02/11 15:40:27;;;;;;;9.60;3.08;;;11.60;56.10;;;;;;6186550;23;20020;-76
2022/02/11 15:42:56;;;;;;;10.60;3.47;;;11.50;56.40;;;;;;6186824;23;20463;-80
2022/02/11 15:45:25;;;;;;;12.50;2.17;;;11.40;56.50;;;;;;6185765;23;20107;-83
2022/02/11 15:47:50;;;;;;;11.70;3.17;;;11.20;56.80;;;;;;6181618;23;20059;-77
2022/02/11 15:50:16;;;;;;;15.65;3.15;;;11.10;56.90;;;;;;6211470;23;20028;-80
2022/02/11 15:52:42;;;;;;;12.52;2.50;;;11.00;56.70;;;;;;6186008;23;20021;-79
2022/02/11 15:55:10;;;;;;;8.43;2.20;;;10.90;56.60;;;;;;6210890;23;20367;-78
2022/02/11 15:57:36;;;;;;;10.52;3.10;;;10.70;56.70;;;;;;6211602;23;20019;-76
2022/02/11 16:00:03;;;;;;;10.77;2.70;;;10.60;56.90;;;;;;6185444;23;20020;-76
2022/02/11 16:02:29;;;;;;;11.90;3.08;;;10.40;57.00;;;;;;6210717;23;20017;-74
2022/02/11 16:04:55;;;;;;;12.50;2.70;;;10.30;57.40;;;;;;6186843;23;20028;-80
2022/02/11 16:07:20;;;;;;;10.43;2.53;;;10.20;57.70;;;;;;6186285;23;20021;-76
2022/02/11 16:09:49;;;;;;;12.88;2.75;;;10.10;57.90;;;;;;6211612;23;20021;-76
2022/02/11 16:12:14;;;;;;;15.05;3.17;;;10.00;57.90;;;;;;6210842;23;20017;-77
2022/02/11 16:14:40;;;;;;;13.95;2.80;;;9.90;58.40;;;;;;6211577;23;20408;-76
2022/02/11 16:17:08;;;;;;;10.80;2.17;;;9.80;58.80;;;;;;6210547;23;20008;-77
2022/02/11 16:19:34;;;;;;;6.82;1.90;;;9.70;59.20;;;;;;6161489;23;20047;-80
2022/02/11 16:22:00;;;;;;;10.80;2.55;;;9.60;59.50;;;;;;6134970;23;20103;-83
2022/02/11 16:24:26;;;;;;;13.63;3.25;;;9.50;59.70;;;;;;6186169;23;20025;-79
2022/02/11 16:26:53;;;;;;;14.23;3.13;;;9.40;59.90;;;;;;6214535;23;20019;-82
2022/02/11 16:29:19;;;;;;;10.60;3.38;;;9.30;59.90;;;;;;6210926;23;20447;-79
2022/02/11 16:31:44;;;;;;;15.38;4.10;;;9.20;60.10;;;;;;6161478;23;20021;-86
2022/02/11 16:34:10;;;;;;;15.68;4.55;;;9.30;62.30;;;;;;6164364;23;20104;-82
2022/02/11 16:36:39;;;;;;;16.30;3.88;;;9.20;61.90;;;;;;6137681;23;20017;-76
2022/02/11 16:39:08;;;;;;;8.23;2.58;;;9.10;61.40;;;;;;6185651;23;20312;-81
2022/02/11 16:41:34;;;;;;;13.02;2.70;;;9.00;61.40;;;;;;6186130;23;20023;-76